sensor_id;sensor_type;location;lat;lon;timestamp;temperature;humidity
78571;SHT31;67861;51.966;5.672;2023-04-07T00:01:38;12.6;68.9
78571;SHT31;67861;51.966;5.672;2023-04-07T00:04:11;12.6;68.8
78571;SHT31;67861;51.966;5.672;2023-04-07T00:06:40;12.6;68.6
78571;SHT31;67861;51.966;5.672;2023-04-07T00:09:13;12.6;68.8
78571;SHT31;67861;51.966;5.672;2023-04-07T00:11:43;12.6;68.6
78571;SHT31;67861;51.966;5.672;2023-04-07T00:14:13;12.6;68.7
78571;SHT31;67861;51.966;5.672;2023-04-07T00:16:42;12.6;68.5
78571;SHT31;67861;51.966;5.672;2023-04-07T00:19:14;12.6;68.4
78571;SHT31;67861;51.966;5.672;2023-04-07T00:21:43;12.6;68.6
78571;SHT31;67861;51.966;5.672;2023-04-07T00:24:13;12.5;68.5
78571;SHT31;67861;51.966;5.672;2023-04-07T00:26:43;12.5;68.3
78571;SHT31;67861;51.966;5.672;2023-04-07T00:29:13;12.5;68.5
78571;SHT31;67861;51.966;5.672;2023-04-07T00:31:42;12.5;68.4
78571;SHT31;67861;51.966;5.672;2023-04-07T00:34:12;12.5;68.5
78571;SHT31;67861;51.966;5.672;2023-04-07T00:36:42;12.5;68.5
78571;SHT31;67861;51.966;5.672;2023-04-07T00:39:16;12.5;68.5
78571;SHT31;67861;51.966;5.672;2023-04-07T00:41:47;12.5;68.5
78571;SHT31;67861;51.966;5.672;2023-04-07T00:44:19;12.5;68.2
78571;SHT31;67861;51.966;5.672;2023-04-07T00:46:49;12.5;68.2
78571;SHT31;67861;51.966;5.672;2023-04-07T00:49:18;12.4;68.1
78571;SHT31;67861;51.966;5.672;2023-04-07T00:51:50;12.4;68.1
78571;SHT31;67861;51.966;5.672;2023-04-07T00:54:20;12.4;68.3
78571;SHT31;67861;51.966;5.672;2023-04-07T00:56:51;12.4;68.1
78571;SHT31;67861;51.966;5.672;2023-04-07T00:59:22;12.4;68.2
78571;SHT31;67861;51.966;5.672;2023-04-07T01:02:00;12.4;68.3
78571;SHT31;67861;51.966;5.672;2023-04-07T01:04:34;12.4;68.2
78571;SHT31;67861;51.966;5.672;2023-04-07T01:07:12;12.4;68.2
78571;SHT31;67861;51.966;5.672;2023-04-07T01:09:47;12.3;68.1
78571;SHT31;67861;51.966;5.672;2023-04-07T01:12:31;12.3;67.8
78571;SHT31;67861;51.966;5.672;2023-04-07T01:15:08;12.3;67.8
78571;SHT31;67861;51.966;5.672;2023-04-07T01:17:43;12.3;67.7
78571;SHT31;67861;51.966;5.672;2023-04-07T01:20:16;12.2;67.8
78571;SHT31;67861;51.966;5.672;2023-04-07T01:22:53;12.2;67.8
78571;SHT31;67861;51.966;5.672;2023-04-07T01:25:37;12.2;67.8
78571;SHT31;67861;51.966;5.672;2023-04-07T01:28:18;12.2;68.0
78571;SHT31;67861;51.966;5.672;2023-04-07T01:30:54;12.2;68.0
78571;SHT31;67861;51.966;5.672;2023-04-07T01:33:29;12.2;67.8
78571;SHT31;67861;51.966;5.672;2023-04-07T01:36:02;12.1;67.8
78571;SHT31;67861;51.966;5.672;2023-04-07T01:38:33;12.1;67.6
78571;SHT31;67861;51.966;5.672;2023-04-07T01:41:07;12.1;67.5
78571;SHT31;67861;51.966;5.672;2023-04-07T01:43:40;12.1;68.0
78571;SHT31;67861;51.966;5.672;2023-04-07T01:46:10;12.1;67.6
78571;SHT31;67861;51.966;5.672;2023-04-07T01:48:41;12.1;67.2
78571;SHT31;67861;51.966;5.672;2023-04-07T01:51:13;12.1;67.6
78571;SHT31;67861;51.966;5.672;2023-04-07T01:53:46;12.1;67.5
78571;SHT31;67861;51.966;5.672;2023-04-07T01:56:19;12.1;67.7
78571;SHT31;67861;51.966;5.672;2023-04-07T01:58:48;12.1;67.8
78571;SHT31;67861;51.966;5.672;2023-04-07T02:01:18;12.1;68.0
78571;SHT31;67861;51.966;5.672;2023-04-07T02:03:53;12.1;67.9
78571;SHT31;67861;51.966;5.672;2023-04-07T02:06:32;12.1;67.8
78571;SHT31;67861;51.966;5.672;2023-04-07T02:09:06;12.0;67.9
78571;SHT31;67861;51.966;5.672;2023-04-07T02:11:41;12.0;67.9
78571;SHT31;67861;51.966;5.672;2023-04-07T02:14:13;12.0;67.9
78571;SHT31;67861;51.966;5.672;2023-04-07T02:16:45;12.0;67.9
78571;SHT31;67861;51.966;5.672;2023-04-07T02:19:16;12.0;67.7
78571;SHT31;67861;51.966;5.672;2023-04-07T02:21:47;12.0;67.5
78571;SHT31;67861;51.966;5.672;2023-04-07T02:24:22;12.0;67.8
78571;SHT31;67861;51.966;5.672;2023-04-07T02:26:51;12.0;68.1
78571;SHT31;67861;51.966;5.672;2023-04-07T02:29:22;12.0;68.0
78571;SHT31;67861;51.966;5.672;2023-04-07T02:31:52;12.0;68.1
78571;SHT31;67861;51.966;5.672;2023-04-07T02:34:22;12.0;68.1
78571;SHT31;67861;51.966;5.672;2023-04-07T02:36:54;12.0;68.1
78571;SHT31;67861;51.966;5.672;2023-04-07T02:39:23;12.0;68.1
78571;SHT31;67861;51.966;5.672;2023-04-07T02:41:53;12.0;68.3
78571;SHT31;67861;51.966;5.672;2023-04-07T02:44:23;12.0;68.2
78571;SHT31;67861;51.966;5.672;2023-04-07T02:46:52;12.0;68.3
78571;SHT31;67861;51.966;5.672;2023-04-07T02:49:22;12.0;68.3
78571;SHT31;67861;51.966;5.672;2023-04-07T02:51:52;12.0;68.3
78571;SHT31;67861;51.966;5.672;2023-04-07T02:54:22;12.0;68.2
78571;SHT31;67861;51.966;5.672;2023-04-07T02:56:52;12.0;68.3
78571;SHT31;67861;51.966;5.672;2023-04-07T02:59:23;12.0;68.3
78571;SHT31;67861;51.966;5.672;2023-04-07T03:01:52;12.0;68.3
78571;SHT31;67861;51.966;5.672;2023-04-07T03:04:22;12.0;68.5
78571;SHT31;67861;51.966;5.672;2023-04-07T03:06:52;12.0;68.5
78571;SHT31;67861;51.966;5.672;2023-04-07T03:09:22;12.0;68.4
78571;SHT31;67861;51.966;5.672;2023-04-07T03:11:53;12.0;68.4
78571;SHT31;67861;51.966;5.672;2023-04-07T03:14:23;12.0;68.3
78571;SHT31;67861;51.966;5.672;2023-04-07T03:16:53;12.0;68.5
78571;SHT31;67861;51.966;5.672;2023-04-07T03:19:25;12.0;68.2
78571;SHT31;67861;51.966;5.672;2023-04-07T03:21:57;12.1;68.3
78571;SHT31;67861;51.966;5.672;2023-04-07T03:24:27;12.1;68.3
78571;SHT31;67861;51.966;5.672;2023-04-07T03:26:57;12.1;68.3
78571;SHT31;67861;51.966;5.672;2023-04-07T03:29:26;12.1;68.2
78571;SHT31;67861;51.966;5.672;2023-04-07T03:31:58;12.1;68.1
78571;SHT31;67861;51.966;5.672;2023-04-07T03:34:27;12.1;67.9
78571;SHT31;67861;51.966;5.672;2023-04-07T03:36:59;12.1;67.9
78571;SHT31;67861;51.966;5.672;2023-04-07T03:39:28;12.1;68.0
78571;SHT31;67861;51.966;5.672;2023-04-07T03:41:58;12.1;67.8
78571;SHT31;67861;51.966;5.672;2023-04-07T03:44:29;12.1;67.9
78571;SHT31;67861;51.966;5.672;2023-04-07T03:46:59;12.1;68.0
78571;SHT31;67861;51.966;5.672;2023-04-07T03:49:29;12.1;68.0
78571;SHT31;67861;51.966;5.672;2023-04-07T03:52:00;12.1;67.8
78571;SHT31;67861;51.966;5.672;2023-04-07T03:54:30;12.1;67.8
78571;SHT31;67861;51.966;5.672;2023-04-07T03:57:02;12.1;67.8
78571;SHT31;67861;51.966;5.672;2023-04-07T03:59:32;12.1;67.8
78571;SHT31;67861;51.966;5.672;2023-04-07T04:02:02;12.1;67.9
78571;SHT31;67861;51.966;5.672;2023-04-07T04:04:31;12.1;67.8
78571;SHT31;67861;51.966;5.672;2023-04-07T04:07:01;12.1;68.0
78571;SHT31;67861;51.966;5.672;2023-04-07T04:09:31;12.1;67.8
78571;SHT31;67861;51.966;5.672;2023-04-07T04:12:00;12.1;68.1
78571;SHT31;67861;51.966;5.672;2023-04-07T04:14:30;12.1;67.9
78571;SHT31;67861;51.966;5.672;2023-04-07T04:17:00;12.1;68.1
78571;SHT31;67861;51.966;5.672;2023-04-07T04:19:29;12.1;67.8
78571;SHT31;67861;51.966;5.672;2023-04-07T04:21:59;12.1;68.0
78571;SHT31;67861;51.966;5.672;2023-04-07T04:24:31;12.1;67.7
78571;SHT31;67861;51.966;5.672;2023-04-07T04:27:03;12.1;67.9
78571;SHT31;67861;51.966;5.672;2023-04-07T04:29:33;12.1;67.9
78571;SHT31;67861;51.966;5.672;2023-04-07T04:32:09;12.1;67.8
78571;SHT31;67861;51.966;5.672;2023-04-07T04:34:39;12.1;67.8
78571;SHT31;67861;51.966;5.672;2023-04-07T04:37:08;12.1;67.9
78571;SHT31;67861;51.966;5.672;2023-04-07T04:39:38;12.1;67.9
78571;SHT31;67861;51.966;5.672;2023-04-07T04:42:08;12.1;67.9
78571;SHT31;67861;51.966;5.672;2023-04-07T04:44:37;12.1;67.9
78571;SHT31;67861;51.966;5.672;2023-04-07T04:47:07;12.1;68.0
78571;SHT31;67861;51.966;5.672;2023-04-07T04:49:36;12.1;67.9
78571;SHT31;67861;51.966;5.672;2023-04-07T04:52:06;12.1;67.9
78571;SHT31;67861;51.966;5.672;2023-04-07T04:54:36;12.1;67.7
78571;SHT31;67861;51.966;5.672;2023-04-07T04:57:05;12.1;67.6
78571;SHT31;67861;51.966;5.672;2023-04-07T04:59:37;12.1;67.8
78571;SHT31;67861;51.966;5.672;2023-04-07T05:02:09;12.1;67.6
78571;SHT31;67861;51.966;5.672;2023-04-07T05:04:38;12.1;67.7
78571;SHT31;67861;51.966;5.672;2023-04-07T05:07:08;12.1;67.4
78571;SHT31;67861;51.966;5.672;2023-04-07T05:09:38;12.1;67.5
78571;SHT31;67861;51.966;5.672;2023-04-07T05:12:12;12.1;67.5
78571;SHT31;67861;51.966;5.672;2023-04-07T05:14:42;12.1;67.4
78571;SHT31;67861;51.966;5.672;2023-04-07T05:17:12;12.1;67.5
78571;SHT31;67861;51.966;5.672;2023-04-07T05:19:42;12.1;67.5
78571;SHT31;67861;51.966;5.672;2023-04-07T05:22:12;12.1;67.5
78571;SHT31;67861;51.966;5.672;2023-04-07T05:24:42;12.1;67.4
78571;SHT31;67861;51.966;5.672;2023-04-07T05:27:11;12.1;67.3
78571;SHT31;67861;51.966;5.672;2023-04-07T05:29:41;12.1;67.3
78571;SHT31;67861;51.966;5.672;2023-04-07T05:32:11;12.1;67.4
78571;SHT31;67861;51.966;5.672;2023-04-07T05:34:40;12.1;67.4
78571;SHT31;67861;51.966;5.672;2023-04-07T05:37:10;12.1;67.5
78571;SHT31;67861;51.966;5.672;2023-04-07T05:39:40;12.1;67.4
78571;SHT31;67861;51.966;5.672;2023-04-07T05:42:09;12.1;67.5
78571;SHT31;67861;51.966;5.672;2023-04-07T05:44:39;12.1;67.3
78571;SHT31;67861;51.966;5.672;2023-04-07T05:47:08;12.1;67.4
78571;SHT31;67861;51.966;5.672;2023-04-07T05:49:40;12.1;67.3
78571;SHT31;67861;51.966;5.672;2023-04-07T05:52:14;12.1;67.4
78571;SHT31;67861;51.966;5.672;2023-04-07T05:54:46;12.2;67.2
78571;SHT31;67861;51.966;5.672;2023-04-07T05:57:16;12.2;67.2
78571;SHT31;67861;51.966;5.672;2023-04-07T05:59:46;12.1;67.2
78571;SHT31;67861;51.966;5.672;2023-04-07T06:02:19;12.1;67.4
78571;SHT31;67861;51.966;5.672;2023-04-07T06:04:48;12.1;67.6
78571;SHT31;67861;51.966;5.672;2023-04-07T06:07:18;12.1;67.8
78571;SHT31;67861;51.966;5.672;2023-04-07T06:09:48;12.1;67.7
78571;SHT31;67861;51.966;5.672;2023-04-07T06:12:17;12.1;67.5
78571;SHT31;67861;51.966;5.672;2023-04-07T06:14:53;12.1;67.7
78571;SHT31;67861;51.966;5.672;2023-04-07T06:17:23;12.1;68.0
78571;SHT31;67861;51.966;5.672;2023-04-07T06:19:56;12.1;68.2
78571;SHT31;67861;51.966;5.672;2023-04-07T06:22:26;12.1;68.4
78571;SHT31;67861;51.966;5.672;2023-04-07T06:24:56;12.1;68.4
78571;SHT31;67861;51.966;5.672;2023-04-07T06:27:26;12.1;69.0
78571;SHT31;67861;51.966;5.672;2023-04-07T06:29:55;12.1;68.6
78571;SHT31;67861;51.966;5.672;2023-04-07T06:32:25;12.1;68.6
78571;SHT31;67861;51.966;5.672;2023-04-07T06:34:55;12.1;68.6
78571;SHT31;67861;51.966;5.672;2023-04-07T06:37:24;12.1;68.4
78571;SHT31;67861;51.966;5.672;2023-04-07T06:39:54;12.1;68.9
78571;SHT31;67861;51.966;5.672;2023-04-07T06:42:24;12.1;68.6
78571;SHT31;67861;51.966;5.672;2023-04-07T06:44:54;12.1;68.8
78571;SHT31;67861;51.966;5.672;2023-04-07T06:47:23;12.2;69.1
78571;SHT31;67861;51.966;5.672;2023-04-07T06:49:54;12.2;69.3
78571;SHT31;67861;51.966;5.672;2023-04-07T06:52:24;12.2;69.2
78571;SHT31;67861;51.966;5.672;2023-04-07T06:54:53;12.3;68.6
78571;SHT31;67861;51.966;5.672;2023-04-07T06:57:23;12.3;67.9
78571;SHT31;67861;51.966;5.672;2023-04-07T06:59:54;12.4;67.7
78571;SHT31;67861;51.966;5.672;2023-04-07T07:02:23;12.4;68.1
78571;SHT31;67861;51.966;5.672;2023-04-07T07:04:53;12.4;67.1
78571;SHT31;67861;51.966;5.672;2023-04-07T07:07:23;12.5;67.8
78571;SHT31;67861;51.966;5.672;2023-04-07T07:09:53;12.5;67.4
78571;SHT31;67861;51.966;5.672;2023-04-07T07:12:23;12.5;67.9
78571;SHT31;67861;51.966;5.672;2023-04-07T07:14:52;12.6;67.6
78571;SHT31;67861;51.966;5.672;2023-04-07T07:17:22;12.6;67.4
78571;SHT31;67861;51.966;5.672;2023-04-07T07:19:55;12.6;67.1
78571;SHT31;67861;51.966;5.672;2023-04-07T07:22:24;12.6;66.8
78571;SHT31;67861;51.966;5.672;2023-04-07T07:24:57;12.7;66.9
78571;SHT31;67861;51.966;5.672;2023-04-07T07:27:30;12.7;67.0
78571;SHT31;67861;51.966;5.672;2023-04-07T07:30:01;12.7;66.9
78571;SHT31;67861;51.966;5.672;2023-04-07T07:32:31;12.7;67.0
78571;SHT31;67861;51.966;5.672;2023-04-07T07:35:01;12.7;66.3
78571;SHT31;67861;51.966;5.672;2023-04-07T07:37:30;12.7;67.5
78571;SHT31;67861;51.966;5.672;2023-04-07T07:40:00;12.7;66.7
78571;SHT31;67861;51.966;5.672;2023-04-07T07:42:30;12.7;66.4
78571;SHT31;67861;51.966;5.672;2023-04-07T07:45:00;12.8;66.0
78571;SHT31;67861;51.966;5.672;2023-04-07T07:47:31;12.8;66.3
78571;SHT31;67861;51.966;5.672;2023-04-07T07:50:04;12.8;66.2
78571;SHT31;67861;51.966;5.672;2023-04-07T07:52:34;12.8;66.6
78571;SHT31;67861;51.966;5.672;2023-04-07T07:55:06;12.8;66.2
78571;SHT31;67861;51.966;5.672;2023-04-07T07:57:36;12.8;66.7
78571;SHT31;67861;51.966;5.672;2023-04-07T08:00:06;12.8;67.2
78571;SHT31;67861;51.966;5.672;2023-04-07T08:02:36;12.8;67.2
78571;SHT31;67861;51.966;5.672;2023-04-07T08:05:07;12.8;66.9
78571;SHT31;67861;51.966;5.672;2023-04-07T08:07:37;12.9;66.5
78571;SHT31;67861;51.966;5.672;2023-04-07T08:10:10;12.9;66.5
78571;SHT31;67861;51.966;5.672;2023-04-07T08:12:39;13.0;66.9
78571;SHT31;67861;51.966;5.672;2023-04-07T08:15:09;13.0;65.4
78571;SHT31;67861;51.966;5.672;2023-04-07T08:17:39;13.0;65.3
78571;SHT31;67861;51.966;5.672;2023-04-07T08:20:12;13.1;65.9
78571;SHT31;67861;51.966;5.672;2023-04-07T08:22:43;13.1;65.5
78571;SHT31;67861;51.966;5.672;2023-04-07T08:25:12;13.1;66.4
78571;SHT31;67861;51.966;5.672;2023-04-07T08:27:42;13.1;65.9
78571;SHT31;67861;51.966;5.672;2023-04-07T08:30:14;13.2;64.9
78571;SHT31;67861;51.966;5.672;2023-04-07T08:32:44;13.2;65.3
78571;SHT31;67861;51.966;5.672;2023-04-07T08:35:13;13.2;64.6
78571;SHT31;67861;51.966;5.672;2023-04-07T08:37:45;13.3;63.9
78571;SHT31;67861;51.966;5.672;2023-04-07T08:40:16;13.3;64.0
78571;SHT31;67861;51.966;5.672;2023-04-07T08:42:48;13.3;63.5
78571;SHT31;67861;51.966;5.672;2023-04-07T08:45:18;13.3;63.6
78571;SHT31;67861;51.966;5.672;2023-04-07T08:47:54;13.3;63.7
78571;SHT31;67861;51.966;5.672;2023-04-07T08:50:26;13.4;62.8
78571;SHT31;67861;51.966;5.672;2023-04-07T08:52:59;13.4;62.6
78571;SHT31;67861;51.966;5.672;2023-04-07T08:55:30;13.4;62.4
78571;SHT31;67861;51.966;5.672;2023-04-07T08:58:00;13.4;62.7
78571;SHT31;67861;51.966;5.672;2023-04-07T09:00:31;13.3;63.2
78571;SHT31;67861;51.966;5.672;2023-04-07T09:03:01;13.3;63.2
78571;SHT31;67861;51.966;5.672;2023-04-07T09:05:33;13.3;62.5
78571;SHT31;67861;51.966;5.672;2023-04-07T09:08:03;13.3;62.7
78571;SHT31;67861;51.966;5.672;2023-04-07T09:10:33;13.3;64.0
78571;SHT31;67861;51.966;5.672;2023-04-07T09:13:03;13.3;62.9
78571;SHT31;67861;51.966;5.672;2023-04-07T09:15:34;13.3;62.6
78571;SHT31;67861;51.966;5.672;2023-04-07T09:18:04;13.3;61.7
78571;SHT31;67861;51.966;5.672;2023-04-07T09:20:55;13.3;62.7
78571;SHT31;67861;51.966;5.672;2023-04-07T09:23:30;13.3;61.7
78571;SHT31;67861;51.966;5.672;2023-04-07T09:26:17;13.3;61.6
78571;SHT31;67861;51.966;5.672;2023-04-07T09:28:43;13.3;62.7
78571;SHT31;67861;51.966;5.672;2023-04-07T09:31:13;13.3;64.0
78571;SHT31;67861;51.966;5.672;2023-04-07T09:33:43;13.4;62.4
78571;SHT31;67861;51.966;5.672;2023-04-07T09:36:13;13.4;61.9
78571;SHT31;67861;51.966;5.672;2023-04-07T09:38:44;13.4;62.7
78571;SHT31;67861;51.966;5.672;2023-04-07T09:41:15;13.4;62.4
78571;SHT31;67861;51.966;5.672;2023-04-07T09:43:46;13.5;61.6
78571;SHT31;67861;51.966;5.672;2023-04-07T09:46:19;13.5;62.5
78571;SHT31;67861;51.966;5.672;2023-04-07T09:49:02;13.5;62.9
78571;SHT31;67861;51.966;5.672;2023-04-07T09:51:33;13.6;61.3
78571;SHT31;67861;51.966;5.672;2023-04-07T09:54:03;13.6;61.7
78571;SHT31;67861;51.966;5.672;2023-04-07T09:56:35;13.6;61.3
78571;SHT31;67861;51.966;5.672;2023-04-07T09:59:06;13.6;62.0
78571;SHT31;67861;51.966;5.672;2023-04-07T10:01:37;13.7;61.0
78571;SHT31;67861;51.966;5.672;2023-04-07T10:04:08;13.7;60.9
78571;SHT31;67861;51.966;5.672;2023-04-07T10:06:38;13.7;59.8
78571;SHT31;67861;51.966;5.672;2023-04-07T10:09:09;13.8;59.9
78571;SHT31;67861;51.966;5.672;2023-04-07T10:11:40;13.8;60.4
78571;SHT31;67861;51.966;5.672;2023-04-07T10:14:12;13.8;59.5
78571;SHT31;67861;51.966;5.672;2023-04-07T10:16:45;13.8;59.5
78571;SHT31;67861;51.966;5.672;2023-04-07T10:19:18;13.8;61.2
78571;SHT31;67861;51.966;5.672;2023-04-07T10:21:50;13.8;59.5
78571;SHT31;67861;51.966;5.672;2023-04-07T10:24:35;13.8;59.8
78571;SHT31;67861;51.966;5.672;2023-04-07T10:27:10;13.8;60.1
78571;SHT31;67861;51.966;5.672;2023-04-07T10:29:45;13.8;60.4
78571;SHT31;67861;51.966;5.672;2023-04-07T10:32:17;13.8;59.5
78571;SHT31;67861;51.966;5.672;2023-04-07T10:35:06;13.8;60.8
78571;SHT31;67861;51.966;5.672;2023-04-07T10:37:38;13.8;60.6
78571;SHT31;67861;51.966;5.672;2023-04-07T10:40:29;13.8;60.0
78571;SHT31;67861;51.966;5.672;2023-04-07T10:42:59;13.8;60.3
78571;SHT31;67861;51.966;5.672;2023-04-07T10:45:54;13.8;61.6
78571;SHT31;67861;51.966;5.672;2023-04-07T10:48:29;13.8;61.7
78571;SHT31;67861;51.966;5.672;2023-04-07T10:51:17;13.8;61.2
78571;SHT31;67861;51.966;5.672;2023-04-07T10:56:05;13.8;59.9
78571;SHT31;67861;51.966;5.672;2023-04-07T10:58:34;13.9;60.7
78571;SHT31;67861;51.966;5.672;2023-04-07T11:01:19;13.9;59.8
78571;SHT31;67861;51.966;5.672;2023-04-07T11:04:51;13.9;60.3
78571;SHT31;67861;51.966;5.672;2023-04-07T11:07:46;13.9;59.8
78571;SHT31;67861;51.966;5.672;2023-04-07T11:10:17;13.9;58.8
78571;SHT31;67861;51.966;5.672;2023-04-07T11:13:03;13.9;58.3
78571;SHT31;67861;51.966;5.672;2023-04-07T11:15:34;13.9;59.3
78571;SHT31;67861;51.966;5.672;2023-04-07T11:18:12;13.9;59.5
78571;SHT31;67861;51.966;5.672;2023-04-07T11:20:47;13.9;59.3
78571;SHT31;67861;51.966;5.672;2023-04-07T11:23:18;13.9;60.2
78571;SHT31;67861;51.966;5.672;2023-04-07T11:25:51;13.9;58.8
78571;SHT31;67861;51.966;5.672;2023-04-07T11:28:21;13.9;59.2
78571;SHT31;67861;51.966;5.672;2023-04-07T12:01:13;12.1;64.7
78571;SHT31;67861;51.966;5.672;2023-04-07T12:03:56;12.0;64.8
78571;SHT31;67861;51.966;5.672;2023-04-07T12:06:29;12.0;65.3
78571;SHT31;67861;51.966;5.672;2023-04-07T12:09:02;12.1;65.3
78571;SHT31;67861;51.966;5.672;2023-04-07T12:11:32;12.2;65.5
78571;SHT31;67861;51.966;5.672;2023-04-07T12:14:03;12.3;64.0
78571;SHT31;67861;51.966;5.672;2023-04-07T12:16:37;12.4;63.9
78571;SHT31;67861;51.966;5.672;2023-04-07T12:19:07;12.5;63.3
78571;SHT31;67861;51.966;5.672;2023-04-07T12:21:38;12.6;63.3
78571;SHT31;67861;51.966;5.672;2023-04-07T12:24:08;12.7;62.5
78571;SHT31;67861;51.966;5.672;2023-04-07T12:26:38;12.8;62.8
78571;SHT31;67861;51.966;5.672;2023-04-07T12:29:08;12.9;61.5
78571;SHT31;67861;51.966;5.672;2023-04-07T12:31:37;13.0;62.3
78571;SHT31;67861;51.966;5.672;2023-04-07T12:34:07;13.1;62.3
78571;SHT31;67861;51.966;5.672;2023-04-07T12:36:36;13.2;61.7
78571;SHT31;67861;51.966;5.672;2023-04-07T12:39:06;13.3;61.0
78571;SHT31;67861;51.966;5.672;2023-04-07T12:41:36;13.4;61.5
78571;SHT31;67861;51.966;5.672;2023-04-07T12:44:06;13.4;59.7
78571;SHT31;67861;51.966;5.672;2023-04-07T12:46:36;13.5;61.2
78571;SHT31;67861;51.966;5.672;2023-04-07T12:49:05;13.6;60.9
78571;SHT31;67861;51.966;5.672;2023-04-07T12:51:35;13.6;60.1
78571;SHT31;67861;51.966;5.672;2023-04-07T12:54:06;13.7;58.4
78571;SHT31;67861;51.966;5.672;2023-04-07T12:56:36;13.8;59.4
78571;SHT31;67861;51.966;5.672;2023-04-07T12:59:07;13.8;59.2
78571;SHT31;67861;51.966;5.672;2023-04-07T13:01:36;13.8;59.5
78571;SHT31;67861;51.966;5.672;2023-04-07T13:04:06;13.9;59.2
78571;SHT31;67861;51.966;5.672;2023-04-07T13:06:36;13.9;58.6
78571;SHT31;67861;51.966;5.672;2023-04-07T13:09:07;14.0;58.2
78571;SHT31;67861;51.966;5.672;2023-04-07T13:11:37;14.0;58.7
78571;SHT31;67861;51.966;5.672;2023-04-07T13:14:06;14.1;58.4
78571;SHT31;67861;51.966;5.672;2023-04-07T13:16:38;14.1;57.8
78571;SHT31;67861;51.966;5.672;2023-04-07T13:19:07;14.1;56.8
78571;SHT31;67861;51.966;5.672;2023-04-07T13:21:37;14.2;57.6
78571;SHT31;67861;51.966;5.672;2023-04-07T13:24:08;14.2;58.2
78571;SHT31;67861;51.966;5.672;2023-04-07T13:26:38;14.2;58.4
78571;SHT31;67861;51.966;5.672;2023-04-07T13:29:08;14.3;57.0
78571;SHT31;67861;51.966;5.672;2023-04-07T13:31:37;14.3;57.3
78571;SHT31;67861;51.966;5.672;2023-04-07T13:34:07;14.3;57.1
78571;SHT31;67861;51.966;5.672;2023-04-07T13:36:36;14.3;57.3
78571;SHT31;67861;51.966;5.672;2023-04-07T13:39:06;14.4;57.4
78571;SHT31;67861;51.966;5.672;2023-04-07T13:41:38;14.4;58.0
78571;SHT31;67861;51.966;5.672;2023-04-07T13:44:07;14.4;56.6
78571;SHT31;67861;51.966;5.672;2023-04-07T13:46:37;14.4;56.4
78571;SHT31;67861;51.966;5.672;2023-04-07T13:49:11;14.4;56.5
78571;SHT31;67861;51.966;5.672;2023-04-07T13:51:41;14.4;55.7
78571;SHT31;67861;51.966;5.672;2023-04-07T13:54:10;14.4;57.1
78571;SHT31;67861;51.966;5.672;2023-04-07T13:56:43;14.4;55.6
78571;SHT31;67861;51.966;5.672;2023-04-07T13:59:16;14.4;55.9
78571;SHT31;67861;51.966;5.672;2023-04-07T14:01:47;14.4;57.2
78571;SHT31;67861;51.966;5.672;2023-04-07T14:04:17;14.4;58.0
78571;SHT31;67861;51.966;5.672;2023-04-07T14:06:47;14.5;56.5
78571;SHT31;67861;51.966;5.672;2023-04-07T14:09:17;14.5;57.7
78571;SHT31;67861;51.966;5.672;2023-04-07T14:11:46;14.6;56.4
78571;SHT31;67861;51.966;5.672;2023-04-07T14:14:15;14.6;56.5
78571;SHT31;67861;51.966;5.672;2023-04-07T14:16:45;14.6;56.3
78571;SHT31;67861;51.966;5.672;2023-04-07T14:19:18;14.7;57.0
78571;SHT31;67861;51.966;5.672;2023-04-07T14:21:48;14.7;55.3
78571;SHT31;67861;51.966;5.672;2023-04-07T14:24:18;14.7;55.4
78571;SHT31;67861;51.966;5.672;2023-04-07T14:26:48;14.8;56.3
78571;SHT31;67861;51.966;5.672;2023-04-07T14:29:18;14.8;54.7
78571;SHT31;67861;51.966;5.672;2023-04-07T14:31:47;14.8;55.0
78571;SHT31;67861;51.966;5.672;2023-04-07T14:34:17;14.8;55.1
78571;SHT31;67861;51.966;5.672;2023-04-07T14:36:54;14.8;54.2
78571;SHT31;67861;51.966;5.672;2023-04-07T14:39:27;14.8;55.4
78571;SHT31;67861;51.966;5.672;2023-04-07T14:42:00;14.8;55.6
78571;SHT31;67861;51.966;5.672;2023-04-07T14:44:30;14.8;55.3
78571;SHT31;67861;51.966;5.672;2023-04-07T14:47:00;14.8;56.5
78571;SHT31;67861;51.966;5.672;2023-04-07T14:49:29;14.8;56.8
78571;SHT31;67861;51.966;5.672;2023-04-07T14:51:59;14.9;55.6
78571;SHT31;67861;51.966;5.672;2023-04-07T14:54:29;14.9;56.3
78571;SHT31;67861;51.966;5.672;2023-04-07T14:56:59;14.9;57.0
78571;SHT31;67861;51.966;5.672;2023-04-07T14:59:28;14.9;56.2
78571;SHT31;67861;51.966;5.672;2023-04-07T15:01:58;14.9;55.1
78571;SHT31;67861;51.966;5.672;2023-04-07T15:04:28;14.9;55.3
78571;SHT31;67861;51.966;5.672;2023-04-07T15:06:58;14.9;56.0
78571;SHT31;67861;51.966;5.672;2023-04-07T15:09:29;14.9;55.4
78571;SHT31;67861;51.966;5.672;2023-04-07T15:11:59;14.9;56.0
78571;SHT31;67861;51.966;5.672;2023-04-07T15:14:29;14.9;54.6
78571;SHT31;67861;51.966;5.672;2023-04-07T15:16:58;14.8;54.9
78571;SHT31;67861;51.966;5.672;2023-04-07T15:19:28;14.8;55.4
78571;SHT31;67861;51.966;5.672;2023-04-07T15:21:57;14.8;55.2
78571;SHT31;67861;51.966;5.672;2023-04-07T15:24:27;14.7;55.1
78571;SHT31;67861;51.966;5.672;2023-04-07T15:26:58;14.7;55.7
78571;SHT31;67861;51.966;5.672;2023-04-07T15:29:28;14.7;55.9
78571;SHT31;67861;51.966;5.672;2023-04-07T15:31:58;14.6;55.7
78571;SHT31;67861;51.966;5.672;2023-04-07T15:34:27;14.6;55.6
78571;SHT31;67861;51.966;5.672;2023-04-07T15:36:57;14.6;56.3
78571;SHT31;67861;51.966;5.672;2023-04-07T15:39:26;14.6;56.4
78571;SHT31;67861;51.966;5.672;2023-04-07T15:41:57;14.5;55.9
78571;SHT31;67861;51.966;5.672;2023-04-07T15:44:27;14.5;56.7
78571;SHT31;67861;51.966;5.672;2023-04-07T15:47:03;14.5;57.5
78571;SHT31;67861;51.966;5.672;2023-04-07T15:49:34;14.5;57.0
78571;SHT31;67861;51.966;5.672;2023-04-07T15:52:05;14.5;56.6
78571;SHT31;67861;51.966;5.672;2023-04-07T15:54:35;14.5;56.5
78571;SHT31;67861;51.966;5.672;2023-04-07T15:57:08;14.5;57.5
78571;SHT31;67861;51.966;5.672;2023-04-07T15:59:38;14.5;57.2
78571;SHT31;67861;51.966;5.672;2023-04-07T16:02:08;14.5;56.9
78571;SHT31;67861;51.966;5.672;2023-04-07T16:04:37;14.5;56.5
78571;SHT31;67861;51.966;5.672;2023-04-07T16:07:07;14.5;57.0
78571;SHT31;67861;51.966;5.672;2023-04-07T16:09:37;14.5;56.8
78571;SHT31;67861;51.966;5.672;2023-04-07T16:12:06;14.5;56.2
78571;SHT31;67861;51.966;5.672;2023-04-07T16:14:35;14.5;56.2
78571;SHT31;67861;51.966;5.672;2023-04-07T16:17:05;14.5;57.6
78571;SHT31;67861;51.966;5.672;2023-04-07T16:19:36;14.5;56.8
78571;SHT31;67861;51.966;5.672;2023-04-07T16:22:06;14.5;56.5
78571;SHT31;67861;51.966;5.672;2023-04-07T16:24:35;14.5;56.8
78571;SHT31;67861;51.966;5.672;2023-04-07T16:27:04;14.5;57.0
78571;SHT31;67861;51.966;5.672;2023-04-07T16:29:34;14.5;56.7
78571;SHT31;67861;51.966;5.672;2023-04-07T16:32:04;14.5;56.7
78571;SHT31;67861;51.966;5.672;2023-04-07T16:34:34;14.5;56.7
78571;SHT31;67861;51.966;5.672;2023-04-07T16:37:03;14.5;57.1
78571;SHT31;67861;51.966;5.672;2023-04-07T16:39:34;14.5;57.5
78571;SHT31;67861;51.966;5.672;2023-04-07T16:42:03;14.5;57.7
78571;SHT31;67861;51.966;5.672;2023-04-07T16:44:33;14.4;57.4
78571;SHT31;67861;51.966;5.672;2023-04-07T16:47:03;14.4;57.4
78571;SHT31;67861;51.966;5.672;2023-04-07T16:49:32;14.4;57.5
78571;SHT31;67861;51.966;5.672;2023-04-07T16:52:02;14.4;57.6
78571;SHT31;67861;51.966;5.672;2023-04-07T16:54:33;14.4;57.4
78571;SHT31;67861;51.966;5.672;2023-04-07T16:57:02;14.4;57.7
78571;SHT31;67861;51.966;5.672;2023-04-07T16:59:34;14.4;57.7
78571;SHT31;67861;51.966;5.672;2023-04-07T17:02:07;14.4;57.7